Pearl River, New York
Current Conditions -  °F | °C
As of 8:20 AM on Wednesday 22 Oct 2014 (Local Time) from KTEB Reporting Station
Light Rain Light Rain  
Wind Chill: 55°   Ceiling: 1000
Heat Index: 55°   Visibility: 7mi
Dew Point: 52°   Wind: 10mph
Humidity: 88%   Direction: 360°N
Pressure: 29.93"   Gusts: NA
Location:  41.06°N, 74.02°W
Report Text: KTEB 221220Z 36009KT 7SM -RA BKN010 OVC022 13/11 A2993 RMK AO2 P0001
Loading
Personal Weather Stations






























Interactive Weather Map
Tropical Storm Tracking
New forecast layout! Learn more

10-Day Weather Forecast

Advertisements
Track Severe Weather on mobile